sensor_id;sensor_type;location;lat;lon;timestamp;pressure;altitude;pressure_sealevel;temperature;humidity
64698;BME280;51124;53.394;-6.294;2023-08-24T00:02:01;100872.61;;;23.38;10.76
64698;BME280;51124;53.394;-6.294;2023-08-24T00:04:28;100871.82;;;23.02;10.78
64698;BME280;51124;53.394;-6.294;2023-08-24T00:06:56;100866.15;;;23.26;10.65
64698;BME280;51124;53.394;-6.294;2023-08-24T00:09:23;100868.23;;;23.86;10.45
64698;BME280;51124;53.394;-6.294;2023-08-24T00:11:51;100867.64;;;22.80;10.59
64698;BME280;51124;53.394;-6.294;2023-08-24T00:14:18;100868.37;;;22.55;10.59
64698;BME280;51124;53.394;-6.294;2023-08-24T00:16:45;100872.25;;;22.94;10.43
64698;BME280;51124;53.394;-6.294;2023-08-24T00:19:13;100874.15;;;24.11;10.22
64698;BME280;51124;53.394;-6.294;2023-08-24T00:21:40;100873.63;;;23.11;10.45
64698;BME280;51124;53.394;-6.294;2023-08-24T00:24:07;100869.40;;;23.86;10.24
64698;BME280;51124;53.394;-6.294;2023-08-24T00:26:45;100866.91;;;23.36;10.23
64698;BME280;51124;53.394;-6.294;2023-08-24T00:29:12;100865.18;;;23.56;10.16
64698;BME280;51124;53.394;-6.294;2023-08-24T00:31:39;100862.39;;;23.80;9.98
64698;BME280;51124;53.394;-6.294;2023-08-24T00:34:06;100859.56;;;23.60;9.94
64698;BME280;51124;53.394;-6.294;2023-08-24T00:36:34;100856.68;;;23.59;9.94
64698;BME280;51124;53.394;-6.294;2023-08-24T00:39:01;100846.50;;;23.22;9.98
64698;BME280;51124;53.394;-6.294;2023-08-24T00:41:28;100841.20;;;23.75;9.88
64698;BME280;51124;53.394;-6.294;2023-08-24T00:43:55;100839.21;;;23.63;9.89
64698;BME280;51124;53.394;-6.294;2023-08-24T00:46:23;100846.36;;;22.86;10.11
64698;BME280;51124;53.394;-6.294;2023-08-24T00:48:51;100841.61;;;23.04;10.06
64698;BME280;51124;53.394;-6.294;2023-08-24T00:51:18;100836.27;;;23.70;10.08
64698;BME280;51124;53.394;-6.294;2023-08-24T00:53:47;100830.62;;;23.11;10.10
64698;BME280;51124;53.394;-6.294;2023-08-24T00:56:14;100833.93;;;23.24;10.02
64698;BME280;51124;53.394;-6.294;2023-08-24T00:58:42;100832.85;;;23.30;10.02
64698;BME280;51124;53.394;-6.294;2023-08-24T01:01:10;100839.04;;;22.85;10.03
64698;BME280;51124;53.394;-6.294;2023-08-24T01:03:37;100836.96;;;23.07;10.13
64698;BME280;51124;53.394;-6.294;2023-08-24T01:06:05;100840.30;;;22.61;10.12
64698;BME280;51124;53.394;-6.294;2023-08-24T01:08:32;100838.14;;;23.43;9.95
64698;BME280;51124;53.394;-6.294;2023-08-24T01:11:02;100841.16;;;24.23;9.87
64698;BME280;51124;53.394;-6.294;2023-08-24T01:13:37;100838.33;;;23.59;10.12
64698;BME280;51124;53.394;-6.294;2023-08-24T01:16:08;100835.49;;;22.84;10.08
64698;BME280;51124;53.394;-6.294;2023-08-24T01:18:40;100838.03;;;24.54;9.86
64698;BME280;51124;53.394;-6.294;2023-08-24T01:21:08;100832.18;;;23.38;10.05
64698;BME280;51124;53.394;-6.294;2023-08-24T01:23:41;100835.02;;;23.28;10.04
64698;BME280;51124;53.394;-6.294;2023-08-24T01:26:13;100833.46;;;23.93;9.88
64698;BME280;51124;53.394;-6.294;2023-08-24T01:28:43;100836.43;;;22.86;10.08
64698;BME280;51124;53.394;-6.294;2023-08-24T01:31:11;100838.70;;;23.23;10.15
64698;BME280;51124;53.394;-6.294;2023-08-24T01:33:41;100834.09;;;23.70;10.12
64698;BME280;51124;53.394;-6.294;2023-08-24T01:36:09;100836.36;;;22.90;10.14
64698;BME280;51124;53.394;-6.294;2023-08-24T01:38:38;100827.92;;;23.24;10.00
64698;BME280;51124;53.394;-6.294;2023-08-24T01:41:12;100826.24;;;22.78;9.96
64698;BME280;51124;53.394;-6.294;2023-08-24T01:43:33;100829.76;;;23.17;10.02
64698;BME280;51124;53.394;-6.294;2023-08-24T01:46:05;100833.05;;;22.66;10.01
64698;BME280;51124;53.394;-6.294;2023-08-24T01:48:34;100831.10;;;25.99;10.08
64698;BME280;51124;53.394;-6.294;2023-08-24T01:51:03;100822.40;;;24.74;10.78
64698;BME280;51124;53.394;-6.294;2023-08-24T01:53:32;100816.47;;;23.10;10.99
64698;BME280;51124;53.394;-6.294;2023-08-24T01:56:00;100818.85;;;23.74;10.76
64698;BME280;51124;53.394;-6.294;2023-08-24T01:58:27;100821.35;;;26.67;11.10
64698;BME280;51124;53.394;-6.294;2023-08-24T02:00:54;100821.93;;;25.33;11.73
64698;BME280;51124;53.394;-6.294;2023-08-24T02:03:22;100819.83;;;25.59;11.87
64698;BME280;51124;53.394;-6.294;2023-08-24T02:05:49;100817.27;;;25.42;12.17
64698;BME280;51124;53.394;-6.294;2023-08-24T02:08:16;100821.43;;;24.47;12.39
64698;BME280;51124;53.394;-6.294;2023-08-24T02:10:43;100821.24;;;25.67;12.26
64698;BME280;51124;53.394;-6.294;2023-08-24T02:13:11;100815.04;;;25.60;12.32
64698;BME280;51124;53.394;-6.294;2023-08-24T02:15:39;100814.62;;;25.12;12.46
64698;BME280;51124;53.394;-6.294;2023-08-24T02:18:07;100810.03;;;25.44;12.44
64698;BME280;51124;53.394;-6.294;2023-08-24T02:20:37;100811.22;;;25.12;12.40
64698;BME280;51124;53.394;-6.294;2023-08-24T02:23:05;100819.91;;;24.64;12.50
64698;BME280;51124;53.394;-6.294;2023-08-24T02:25:32;100815.31;;;25.30;12.50
64698;BME280;51124;53.394;-6.294;2023-08-24T02:28:00;100817.98;;;25.13;12.57
64698;BME280;51124;53.394;-6.294;2023-08-24T02:30:27;100817.83;;;25.30;12.44
64698;BME280;51124;53.394;-6.294;2023-08-24T02:32:55;100826.30;;;25.15;12.49
64698;BME280;51124;53.394;-6.294;2023-08-24T02:35:22;100823.49;;;24.86;12.56
64698;BME280;51124;53.394;-6.294;2023-08-24T02:37:50;100813.87;;;24.50;12.81
64698;BME280;51124;53.394;-6.294;2023-08-24T02:40:17;100816.38;;;25.60;12.50
64698;BME280;51124;53.394;-6.294;2023-08-24T02:42:44;100819.81;;;24.71;12.66
64698;BME280;51124;53.394;-6.294;2023-08-24T02:45:12;100815.03;;;25.03;12.48
64698;BME280;51124;53.394;-6.294;2023-08-24T02:47:39;100816.10;;;23.49;12.77
64698;BME280;51124;53.394;-6.294;2023-08-24T02:50:08;100811.54;;;23.44;12.04
64698;BME280;51124;53.394;-6.294;2023-08-24T02:52:35;100816.47;;;22.79;11.73
64698;BME280;51124;53.394;-6.294;2023-08-24T02:55:02;100814.82;;;22.36;11.53
64698;BME280;51124;53.394;-6.294;2023-08-24T02:57:30;100815.37;;;23.71;11.20
64698;BME280;51124;53.394;-6.294;2023-08-24T02:59:57;100815.23;;;23.23;11.03
64698;BME280;51124;53.394;-6.294;2023-08-24T03:02:24;100814.84;;;22.19;11.09
64698;BME280;51124;53.394;-6.294;2023-08-24T03:04:51;100809.83;;;22.65;10.75
64698;BME280;51124;53.394;-6.294;2023-08-24T03:07:19;100803.98;;;22.31;10.82
64698;BME280;51124;53.394;-6.294;2023-08-24T03:09:46;100806.82;;;22.94;10.57
64698;BME280;51124;53.394;-6.294;2023-08-24T03:12:13;100809.78;;;23.47;10.32
64698;BME280;51124;53.394;-6.294;2023-08-24T03:14:40;100812.50;;;23.42;10.45
64698;BME280;51124;53.394;-6.294;2023-08-24T03:17:08;100800.69;;;22.96;10.27
64698;BME280;51124;53.394;-6.294;2023-08-24T03:19:35;100803.47;;;23.09;10.37
64698;BME280;51124;53.394;-6.294;2023-08-24T03:22:02;100797.99;;;22.83;10.30
64698;BME280;51124;53.394;-6.294;2023-08-24T03:24:30;100804.16;;;23.24;10.20
64698;BME280;51124;53.394;-6.294;2023-08-24T03:26:57;100800.35;;;22.55;10.31
64698;BME280;51124;53.394;-6.294;2023-08-24T03:29:24;100805.66;;;22.63;10.33
64698;BME280;51124;53.394;-6.294;2023-08-24T03:31:52;100805.66;;;22.90;10.19
64698;BME280;51124;53.394;-6.294;2023-08-24T03:34:19;100801.54;;;23.16;10.05
64698;BME280;51124;53.394;-6.294;2023-08-24T03:36:46;100808.45;;;23.05;10.15
64698;BME280;51124;53.394;-6.294;2023-08-24T03:39:14;100811.23;;;22.48;10.15
64698;BME280;51124;53.394;-6.294;2023-08-24T03:41:41;100810.36;;;22.68;10.14
64698;BME280;51124;53.394;-6.294;2023-08-24T03:44:08;100811.37;;;22.98;10.01
64698;BME280;51124;53.394;-6.294;2023-08-24T03:46:36;100810.26;;;22.81;9.97
64698;BME280;51124;53.394;-6.294;2023-08-24T03:49:03;100808.95;;;22.30;9.91
64698;BME280;51124;53.394;-6.294;2023-08-24T03:51:30;100810.42;;;22.67;9.87
64698;BME280;51124;53.394;-6.294;2023-08-24T03:53:57;100808.95;;;23.36;9.91
64698;BME280;51124;53.394;-6.294;2023-08-24T03:56:25;100804.86;;;22.75;10.04
64698;BME280;51124;53.394;-6.294;2023-08-24T03:58:52;100804.79;;;22.64;10.09
64698;BME280;51124;53.394;-6.294;2023-08-24T04:01:19;100799.60;;;23.05;9.96
64698;BME280;51124;53.394;-6.294;2023-08-24T04:03:46;100796.86;;;22.71;10.11
64698;BME280;51124;53.394;-6.294;2023-08-24T04:06:14;100794.41;;;23.19;9.88
64698;BME280;51124;53.394;-6.294;2023-08-24T04:08:41;100795.67;;;23.11;10.00
64698;BME280;51124;53.394;-6.294;2023-08-24T04:11:08;100793.22;;;23.20;9.88
64698;BME280;51124;53.394;-6.294;2023-08-24T04:13:35;100787.73;;;23.54;9.78
64698;BME280;51124;53.394;-6.294;2023-08-24T04:16:03;100786.13;;;22.81;10.03
64698;BME280;51124;53.394;-6.294;2023-08-24T04:18:30;100785.19;;;22.52;9.88
64698;BME280;51124;53.394;-6.294;2023-08-24T04:20:58;100791.64;;;23.33;9.99
64698;BME280;51124;53.394;-6.294;2023-08-24T04:23:27;100795.16;;;22.72;10.00
64698;BME280;51124;53.394;-6.294;2023-08-24T04:25:54;100797.16;;;23.07;9.99
64698;BME280;51124;53.394;-6.294;2023-08-24T04:28:22;100798.48;;;22.63;9.99
64698;BME280;51124;53.394;-6.294;2023-08-24T04:30:54;100802.51;;;22.32;10.04
64698;BME280;51124;53.394;-6.294;2023-08-24T04:33:21;100799.45;;;23.19;9.97
64698;BME280;51124;53.394;-6.294;2023-08-24T04:35:49;100803.43;;;22.04;10.37
64698;BME280;51124;53.394;-6.294;2023-08-24T04:38:17;100793.73;;;22.66;10.32
64698;BME280;51124;53.394;-6.294;2023-08-24T04:40:53;100797.30;;;22.71;9.97
64698;BME280;51124;53.394;-6.294;2023-08-24T04:43:10;100795.74;;;22.62;9.96
64698;BME280;51124;53.394;-6.294;2023-08-24T04:45:37;100797.65;;;23.05;9.81
64698;BME280;51124;53.394;-6.294;2023-08-24T04:48:05;100799.08;;;23.16;9.75
64698;BME280;51124;53.394;-6.294;2023-08-24T04:50:33;100798.82;;;23.48;9.94
64698;BME280;51124;53.394;-6.294;2023-08-24T04:53:00;100799.54;;;25.44;10.32
64698;BME280;51124;53.394;-6.294;2023-08-24T04:55:27;100804.59;;;24.67;10.67
64698;BME280;51124;53.394;-6.294;2023-08-24T04:57:55;100801.53;;;22.53;10.88
64698;BME280;51124;53.394;-6.294;2023-08-24T05:00:22;100799.05;;;25.12;10.74
64698;BME280;51124;53.394;-6.294;2023-08-24T05:02:50;100803.75;;;26.75;11.14
64698;BME280;51124;53.394;-6.294;2023-08-24T05:05:17;100801.95;;;25.47;11.46
64698;BME280;51124;53.394;-6.294;2023-08-24T05:07:45;100807.73;;;25.02;11.86
64698;BME280;51124;53.394;-6.294;2023-08-24T05:10:12;100809.14;;;24.59;12.15
64698;BME280;51124;53.394;-6.294;2023-08-24T05:12:40;100805.60;;;24.81;12.23
64698;BME280;51124;53.394;-6.294;2023-08-24T05:15:08;100808.96;;;24.43;12.29
64698;BME280;51124;53.394;-6.294;2023-08-24T05:17:35;100813.96;;;24.79;12.35
64698;BME280;51124;53.394;-6.294;2023-08-24T05:20:03;100812.33;;;25.52;12.07
64698;BME280;51124;53.394;-6.294;2023-08-24T05:22:31;100815.65;;;24.75;12.43
64698;BME280;51124;53.394;-6.294;2023-08-24T05:24:58;100819.49;;;24.20;12.47
64698;BME280;51124;53.394;-6.294;2023-08-24T05:27:25;100821.05;;;24.95;12.49
64698;BME280;51124;53.394;-6.294;2023-08-24T05:29:53;100816.93;;;24.28;12.56
64698;BME280;51124;53.394;-6.294;2023-08-24T05:32:20;100820.35;;;24.30;12.74
64698;BME280;51124;53.394;-6.294;2023-08-24T05:34:47;100819.84;;;24.48;12.51
64698;BME280;51124;53.394;-6.294;2023-08-24T05:37:15;100822.75;;;25.12;12.40
64698;BME280;51124;53.394;-6.294;2023-08-24T05:39:42;100816.58;;;24.54;12.54
64698;BME280;51124;53.394;-6.294;2023-08-24T05:42:10;100818.61;;;25.35;12.24
64698;BME280;51124;53.394;-6.294;2023-08-24T05:44:37;100815.96;;;24.28;12.60
64698;BME280;51124;53.394;-6.294;2023-08-24T05:47:05;100820.29;;;24.51;12.48
64698;BME280;51124;53.394;-6.294;2023-08-24T05:49:33;100819.18;;;24.33;12.54
64698;BME280;51124;53.394;-6.294;2023-08-24T05:52:00;100820.30;;;22.70;12.43
64698;BME280;51124;53.394;-6.294;2023-08-24T05:54:27;100814.67;;;22.16;11.98
64698;BME280;51124;53.394;-6.294;2023-08-24T05:56:54;100814.35;;;22.77;11.60
64698;BME280;51124;53.394;-6.294;2023-08-24T05:59:22;100817.54;;;23.25;11.21
64698;BME280;51124;53.394;-6.294;2023-08-24T06:01:49;100816.96;;;23.07;11.17
64698;BME280;51124;53.394;-6.294;2023-08-24T06:04:16;100822.92;;;22.74;11.21
64698;BME280;51124;53.394;-6.294;2023-08-24T06:06:44;100826.47;;;22.86;10.80
64698;BME280;51124;53.394;-6.294;2023-08-24T06:09:11;100831.86;;;21.87;10.87
64698;BME280;51124;53.394;-6.294;2023-08-24T06:11:39;100831.66;;;23.21;10.54
64698;BME280;51124;53.394;-6.294;2023-08-24T06:14:06;100832.74;;;22.16;10.62
64698;BME280;51124;53.394;-6.294;2023-08-24T06:16:33;100829.89;;;22.26;10.42
64698;BME280;51124;53.394;-6.294;2023-08-24T06:19:00;100832.24;;;23.20;10.18
64698;BME280;51124;53.394;-6.294;2023-08-24T06:21:28;100829.01;;;23.09;10.26
64698;BME280;51124;53.394;-6.294;2023-08-24T06:23:55;100822.80;;;22.18;10.44
64698;BME280;51124;53.394;-6.294;2023-08-24T06:26:22;100819.16;;;22.49;10.32
64698;BME280;51124;53.394;-6.294;2023-08-24T06:28:50;100819.23;;;22.99;10.22
64698;BME280;51124;53.394;-6.294;2023-08-24T06:31:17;100820.66;;;22.51;10.13
64698;BME280;51124;53.394;-6.294;2023-08-24T06:33:44;100819.26;;;22.32;10.10
64698;BME280;51124;53.394;-6.294;2023-08-24T06:36:11;100826.11;;;22.57;10.08
64698;BME280;51124;53.394;-6.294;2023-08-24T06:38:39;100822.91;;;22.21;9.99
64698;BME280;51124;53.394;-6.294;2023-08-24T06:41:06;100821.85;;;22.58;9.98
64698;BME280;51124;53.394;-6.294;2023-08-24T06:43:33;100820.94;;;22.38;10.10
64698;BME280;51124;53.394;-6.294;2023-08-24T06:46:01;100820.41;;;23.27;9.87
64698;BME280;51124;53.394;-6.294;2023-08-24T06:48:28;100817.49;;;22.83;9.92
64698;BME280;51124;53.394;-6.294;2023-08-24T06:50:55;100813.60;;;22.65;10.10
64698;BME280;51124;53.394;-6.294;2023-08-24T06:53:23;100810.18;;;22.60;10.72
64698;BME280;51124;53.394;-6.294;2023-08-24T06:55:56;100808.02;;;22.25;10.72
64698;BME280;51124;53.394;-6.294;2023-08-24T06:58:23;100805.77;;;22.96;10.90
64698;BME280;51124;53.394;-6.294;2023-08-24T07:00:51;100804.58;;;21.68;10.89
64698;BME280;51124;53.394;-6.294;2023-08-24T07:03:18;100813.32;;;23.08;10.54
64698;BME280;51124;53.394;-6.294;2023-08-24T07:05:46;100811.71;;;22.73;10.42
64698;BME280;51124;53.394;-6.294;2023-08-24T07:08:14;100809.29;;;21.72;10.62
64698;BME280;51124;53.394;-6.294;2023-08-24T07:10:42;100815.79;;;23.04;10.14
64698;BME280;51124;53.394;-6.294;2023-08-24T07:13:09;100816.58;;;22.83;10.04
64698;BME280;51124;53.394;-6.294;2023-08-24T07:15:37;100811.55;;;24.16;9.90
64698;BME280;51124;53.394;-6.294;2023-08-24T07:18:05;100812.21;;;23.88;9.87
64698;BME280;51124;53.394;-6.294;2023-08-24T07:20:32;100802.18;;;23.56;10.01
64698;BME280;51124;53.394;-6.294;2023-08-24T07:23:00;100806.16;;;23.82;10.00
64698;BME280;51124;53.394;-6.294;2023-08-24T07:25:27;100807.24;;;23.75;9.85
64698;BME280;51124;53.394;-6.294;2023-08-24T07:27:54;100806.67;;;24.21;9.91
64698;BME280;51124;53.394;-6.294;2023-08-24T07:30:22;100805.83;;;23.68;9.92
64698;BME280;51124;53.394;-6.294;2023-08-24T07:32:49;100805.95;;;23.35;9.99
64698;BME280;51124;53.394;-6.294;2023-08-24T07:35:16;100803.32;;;24.00;9.84
64698;BME280;51124;53.394;-6.294;2023-08-24T07:37:44;100805.40;;;23.32;9.94
64698;BME280;51124;53.394;-6.294;2023-08-24T07:40:12;100804.49;;;24.32;9.83
64698;BME280;51124;53.394;-6.294;2023-08-24T07:42:45;100800.71;;;21.55;10.53
64698;BME280;51124;53.394;-6.294;2023-08-24T07:45:13;100797.90;;;22.95;10.31
64698;BME280;51124;53.394;-6.294;2023-08-24T07:47:40;100796.98;;;21.71;10.48
64698;BME280;51124;53.394;-6.294;2023-08-24T07:50:08;100794.62;;;21.93;10.28
64698;BME280;51124;53.394;-6.294;2023-08-24T07:52:36;100793.89;;;23.42;9.91
64698;BME280;51124;53.394;-6.294;2023-08-24T07:55:03;100795.80;;;22.86;9.93
64698;BME280;51124;53.394;-6.294;2023-08-24T07:57:31;100796.06;;;23.36;10.12
64698;BME280;51124;53.394;-6.294;2023-08-24T07:59:58;100790.88;;;24.71;10.59
64698;BME280;51124;53.394;-6.294;2023-08-24T08:02:26;100785.55;;;24.46;10.82
64698;BME280;51124;53.394;-6.294;2023-08-24T08:04:56;100781.63;;;22.91;10.85
64698;BME280;51124;53.394;-6.294;2023-08-24T08:07:23;100778.72;;;24.22;10.95
64698;BME280;51124;53.394;-6.294;2023-08-24T08:09:50;100778.10;;;26.29;11.05
64698;BME280;51124;53.394;-6.294;2023-08-24T08:12:18;100775.75;;;24.51;11.45
64698;BME280;51124;53.394;-6.294;2023-08-24T08:14:45;100769.62;;;24.71;11.74
64698;BME280;51124;53.394;-6.294;2023-08-24T08:17:12;100776.69;;;24.98;11.78
64698;BME280;51124;53.394;-6.294;2023-08-24T08:19:40;100782.62;;;24.39;12.19
64698;BME280;51124;53.394;-6.294;2023-08-24T08:22:07;100776.70;;;25.04;11.96
64698;BME280;51124;53.394;-6.294;2023-08-24T08:24:35;100775.32;;;25.01;12.22
64698;BME280;51124;53.394;-6.294;2023-08-24T08:27:02;100766.00;;;24.56;11.29
64698;BME280;51124;53.394;-6.294;2023-08-24T08:29:30;100767.42;;;23.92;11.06
64698;BME280;51124;53.394;-6.294;2023-08-24T08:31:57;100771.89;;;23.81;10.57
64698;BME280;51124;53.394;-6.294;2023-08-24T08:34:24;100774.07;;;23.95;10.39
64698;BME280;51124;53.394;-6.294;2023-08-24T08:36:52;100771.13;;;24.35;10.10
64698;BME280;51124;53.394;-6.294;2023-08-24T08:39:20;100774.58;;;23.42;10.21
64698;BME280;51124;53.394;-6.294;2023-08-24T08:41:48;100771.73;;;23.61;10.14
64698;BME280;51124;53.394;-6.294;2023-08-24T08:44:16;100767.13;;;23.73;10.20
64698;BME280;51124;53.394;-6.294;2023-08-24T08:46:45;100770.18;;;23.56;10.39
64698;BME280;51124;53.394;-6.294;2023-08-24T08:49:14;100769.97;;;23.26;10.40
64698;BME280;51124;53.394;-6.294;2023-08-24T08:51:43;100773.01;;;23.36;10.39
64698;BME280;51124;53.394;-6.294;2023-08-24T08:54:10;100777.73;;;22.94;10.67
64698;BME280;51124;53.394;-6.294;2023-08-24T08:56:38;100778.57;;;23.27;10.58
64698;BME280;51124;53.394;-6.294;2023-08-24T08:59:09;100778.13;;;21.97;10.47
64698;BME280;51124;53.394;-6.294;2023-08-24T09:01:39;100778.15;;;21.76;10.00
64698;BME280;51124;53.394;-6.294;2023-08-24T09:04:08;100772.98;;;20.71;9.75
64698;BME280;51124;53.394;-6.294;2023-08-24T09:06:35;100766.00;;;21.31;9.48
64698;BME280;51124;53.394;-6.294;2023-08-24T09:09:04;100759.17;;;21.68;9.37
64698;BME280;51124;53.394;-6.294;2023-08-24T09:11:31;100755.57;;;22.62;8.95
64698;BME280;51124;53.394;-6.294;2023-08-24T09:13:59;100766.41;;;20.50;9.08
64698;BME280;51124;53.394;-6.294;2023-08-24T09:16:31;100771.65;;;20.92;9.01
64698;BME280;51124;53.394;-6.294;2023-08-24T09:19:00;100759.47;;;21.61;8.45
64698;BME280;51124;53.394;-6.294;2023-08-24T09:21:31;100762.66;;;21.26;8.69
64698;BME280;51124;53.394;-6.294;2023-08-24T09:24:03;100759.02;;;20.85;8.65
64698;BME280;51124;53.394;-6.294;2023-08-24T09:26:31;100764.80;;;21.37;8.75
64698;BME280;51124;53.394;-6.294;2023-08-24T09:28:59;100766.73;;;21.22;8.48
64698;BME280;51124;53.394;-6.294;2023-08-24T09:31:36;100755.70;;;21.37;8.17
64698;BME280;51124;53.394;-6.294;2023-08-24T09:34:01;100752.17;;;20.86;8.16
64698;BME280;51124;53.394;-6.294;2023-08-24T09:36:30;100753.48;;;20.95;8.06
64698;BME280;51124;53.394;-6.294;2023-08-24T09:38:58;100756.63;;;20.52;7.99
64698;BME280;51124;53.394;-6.294;2023-08-24T09:41:36;100750.16;;;21.11;7.61
64698;BME280;51124;53.394;-6.294;2023-08-24T09:43:54;100750.94;;;20.97;7.57
64698;BME280;51124;53.394;-6.294;2023-08-24T09:46:21;100750.13;;;21.71;7.38
64698;BME280;51124;53.394;-6.294;2023-08-24T09:48:55;100746.08;;;20.76;7.55
64698;BME280;51124;53.394;-6.294;2023-08-24T09:51:23;100742.03;;;21.07;7.69
64698;BME280;51124;53.394;-6.294;2023-08-24T09:53:53;100743.85;;;20.57;7.86
64698;BME280;51124;53.394;-6.294;2023-08-24T09:56:24;100745.16;;;20.60;7.84
64698;BME280;51124;53.394;-6.294;2023-08-24T09:58:53;100741.29;;;21.00;7.82
64698;BME280;51124;53.394;-6.294;2023-08-24T10:01:21;100737.25;;;20.45;7.87
64698;BME280;51124;53.394;-6.294;2023-08-24T10:03:52;100736.70;;;21.02;7.86
64698;BME280;51124;53.394;-6.294;2023-08-24T10:06:21;100746.28;;;21.76;7.61
64698;BME280;51124;53.394;-6.294;2023-08-24T10:08:54;100734.89;;;21.11;7.75
64698;BME280;51124;53.394;-6.294;2023-08-24T10:11:25;100743.36;;;21.01;7.50
64698;BME280;51124;53.394;-6.294;2023-08-24T10:13:58;100743.23;;;19.94;7.95
64698;BME280;51124;53.394;-6.294;2023-08-24T10:16:26;100739.73;;;21.53;7.59
64698;BME280;51124;53.394;-6.294;2023-08-24T10:18:54;100743.89;;;21.49;7.56
64698;BME280;51124;53.394;-6.294;2023-08-24T10:21:23;100735.64;;;21.81;7.54
64698;BME280;51124;53.394;-6.294;2023-08-24T10:23:51;100736.99;;;22.23;7.37
64698;BME280;51124;53.394;-6.294;2023-08-24T10:26:19;100736.82;;;22.23;7.42
64698;BME280;51124;53.394;-6.294;2023-08-24T10:28:48;100733.20;;;22.14;7.19
64698;BME280;51124;53.394;-6.294;2023-08-24T10:31:16;100743.05;;;21.24;7.55
64698;BME280;51124;53.394;-6.294;2023-08-24T10:33:45;100741.32;;;21.41;7.33
64698;BME280;51124;53.394;-6.294;2023-08-24T10:36:14;100738.20;;;21.06;7.64
64698;BME280;51124;53.394;-6.294;2023-08-24T10:38:42;100730.80;;;21.13;7.40
64698;BME280;51124;53.394;-6.294;2023-08-24T10:41:10;100739.16;;;21.18;7.25
64698;BME280;51124;53.394;-6.294;2023-08-24T10:43:39;100733.95;;;22.26;7.17
64698;BME280;51124;53.394;-6.294;2023-08-24T10:46:14;100725.94;;;21.44;7.36
64698;BME280;51124;53.394;-6.294;2023-08-24T10:49:18;100725.63;;;20.73;7.29
64698;BME280;51124;53.394;-6.294;2023-08-24T10:51:21;100719.71;;;21.30;7.36
64698;BME280;51124;53.394;-6.294;2023-08-24T10:53:53;100711.15;;;21.72;7.38
64698;BME280;51124;53.394;-6.294;2023-08-24T10:56:22;100718.50;;;21.48;7.43
64698;BME280;51124;53.394;-6.294;2023-08-24T10:59:12;100707.84;;;20.79;7.30
64698;BME280;51124;53.394;-6.294;2023-08-24T11:01:20;100704.53;;;21.40;7.35
64698;BME280;51124;53.394;-6.294;2023-08-24T11:03:54;100710.98;;;21.56;7.45
64698;BME280;51124;53.394;-6.294;2023-08-24T11:06:23;100711.07;;;24.06;7.71
64698;BME280;51124;53.394;-6.294;2023-08-24T11:09:04;100706.97;;;25.64;7.48
64698;BME280;51124;53.394;-6.294;2023-08-24T11:11:22;100698.11;;;23.28;7.69
64698;BME280;51124;53.394;-6.294;2023-08-24T11:14:22;100703.30;;;24.89;7.66
64698;BME280;51124;53.394;-6.294;2023-08-24T11:16:41;100695.72;;;24.96;7.93
64698;BME280;51124;53.394;-6.294;2023-08-24T11:18:49;100704.40;;;24.90;8.21
64698;BME280;51124;53.394;-6.294;2023-08-24T11:21:17;100707.59;;;24.18;8.45
64698;BME280;51124;53.394;-6.294;2023-08-24T11:23:47;100707.16;;;24.82;8.49
64698;BME280;51124;53.394;-6.294;2023-08-24T11:26:15;100707.22;;;24.41;8.60
64698;BME280;51124;53.394;-6.294;2023-08-24T11:28:42;100704.09;;;24.18;8.67
64698;BME280;51124;53.394;-6.294;2023-08-24T11:31:11;100702.16;;;24.65;8.49
64698;BME280;51124;53.394;-6.294;2023-08-24T11:33:38;100699.81;;;24.76;8.52
64698;BME280;51124;53.394;-6.294;2023-08-24T11:36:08;100698.75;;;24.87;8.50
64698;BME280;51124;53.394;-6.294;2023-08-24T11:38:39;100701.73;;;24.09;8.72
64698;BME280;51124;53.394;-6.294;2023-08-24T11:41:12;100695.32;;;24.36;8.68
64698;BME280;51124;53.394;-6.294;2023-08-24T11:43:40;100697.54;;;24.55;8.21
64698;BME280;51124;53.394;-6.294;2023-08-24T11:46:08;100690.60;;;24.97;8.07
64698;BME280;51124;53.394;-6.294;2023-08-24T11:48:35;100694.51;;;25.00;8.18
64698;BME280;51124;53.394;-6.294;2023-08-24T11:51:03;100692.03;;;24.59;8.27
64698;BME280;51124;53.394;-6.294;2023-08-24T11:53:30;100691.70;;;25.33;8.04
64698;BME280;51124;53.394;-6.294;2023-08-24T11:55:58;100690.08;;;24.87;8.27
64698;BME280;51124;53.394;-6.294;2023-08-24T11:58:26;100684.48;;;25.76;8.13
64698;BME280;51124;53.394;-6.294;2023-08-24T12:00:53;100689.92;;;24.92;8.29
64698;BME280;51124;53.394;-6.294;2023-08-24T12:03:21;100696.03;;;23.76;8.60
64698;BME280;51124;53.394;-6.294;2023-08-24T12:05:48;100686.81;;;23.10;8.10
64698;BME280;51124;53.394;-6.294;2023-08-24T12:08:15;100689.92;;;22.06;7.80
64698;BME280;51124;53.394;-6.294;2023-08-24T12:10:44;100682.12;;;22.41;7.30
64698;BME280;51124;53.394;-6.294;2023-08-24T12:13:11;100681.05;;;22.63;7.03
64698;BME280;51124;53.394;-6.294;2023-08-24T12:15:40;100679.33;;;24.14;6.87
64698;BME280;51124;53.394;-6.294;2023-08-24T12:18:10;100673.52;;;23.06;6.80
64698;BME280;51124;53.394;-6.294;2023-08-24T12:20:38;100672.36;;;22.92;6.78
64698;BME280;51124;53.394;-6.294;2023-08-24T12:23:05;100677.97;;;22.56;6.76
64698;BME280;51124;53.394;-6.294;2023-08-24T12:25:38;100671.61;;;22.23;6.59
64698;BME280;51124;53.394;-6.294;2023-08-24T12:28:13;100664.41;;;22.57;6.48
64698;BME280;51124;53.394;-6.294;2023-08-24T12:30:31;100660.79;;;23.30;6.27
64698;BME280;51124;53.394;-6.294;2023-08-24T12:32:58;100660.56;;;21.61;6.49
64698;BME280;51124;53.394;-6.294;2023-08-24T12:35:25;100665.09;;;22.45;6.50
64698;BME280;51124;53.394;-6.294;2023-08-24T12:37:53;100663.25;;;23.18;6.33
64698;BME280;51124;53.394;-6.294;2023-08-24T12:40:20;100667.40;;;21.83;6.29
64698;BME280;51124;53.394;-6.294;2023-08-24T12:42:48;100664.11;;;22.89;6.01
64698;BME280;51124;53.394;-6.294;2023-08-24T12:45:15;100664.02;;;23.21;5.92
64698;BME280;51124;53.394;-6.294;2023-08-24T12:47:43;100659.47;;;23.26;5.88
64698;BME280;51124;53.394;-6.294;2023-08-24T12:50:10;100653.75;;;22.89;5.98